createdAt,value
2022-12-03T00:00:14.311Z,102349.41
2022-12-03T00:02:42.443Z,102354.75
2022-12-03T00:05:11.153Z,102353.91
2022-12-03T00:07:39.133Z,102344.91
2022-12-03T00:10:08.941Z,102340.50
2022-12-03T00:12:37.026Z,102338.69
2022-12-03T00:15:08.324Z,102335.19
2022-12-03T00:17:36.370Z,102340.63
2022-12-03T00:20:05.348Z,102339.75
2022-12-03T00:22:33.326Z,102338.88
2022-12-03T00:25:01.518Z,102332.69
2022-12-03T00:27:29.451Z,102334.44
2022-12-03T00:29:57.438Z,102338.94
2022-12-03T00:32:26.711Z,102336.31
2022-12-03T00:34:54.802Z,102334.56
2022-12-03T00:37:22.938Z,102327.44
2022-12-03T00:39:50.999Z,102325.72
2022-12-03T00:42:18.972Z,102328.41
2022-12-03T00:44:46.913Z,102323.97
2022-12-03T00:47:14.873Z,102323.97
2022-12-03T00:49:44.196Z,102324.84
2022-12-03T00:52:12.099Z,102318.66
2022-12-03T00:54:40.024Z,102319.63
2022-12-03T00:57:07.897Z,102319.63
2022-12-03T00:59:35.813Z,102321.50
2022-12-03T01:02:03.928Z,102323.28
2022-12-03T01:04:32.797Z,102321.50
2022-12-03T01:07:02.430Z,102324.19
2022-12-03T01:09:30.284Z,102320.59
2022-12-03T01:11:58.592Z,102324.22
2022-12-03T01:14:28.725Z,102329.53
2022-12-03T01:16:56.671Z,102321.53
2022-12-03T01:19:24.985Z,102318.88
2022-12-03T01:21:53.353Z,102318.00
2022-12-03T01:24:22.817Z,102321.63
2022-12-03T01:26:50.753Z,102318.00
2022-12-03T01:29:18.685Z,102316.25
2022-12-03T01:32:03.965Z,102315.41
2022-12-03T01:34:31.923Z,102318.19
2022-12-03T01:36:59.883Z,102319.06
2022-12-03T01:39:29.321Z,102321.81
2022-12-03T01:41:58.738Z,102317.38
2022-12-03T01:44:29.296Z,102304.13
2022-12-03T01:47:00.993Z,102309.47
2022-12-03T01:49:32.496Z,102306.81
2022-12-03T01:52:01.031Z,102302.34
2022-12-03T01:54:37.678Z,102304.16
2022-12-03T01:57:05.997Z,102308.66
2022-12-03T01:59:36.879Z,102305.13
2022-12-03T02:02:13.888Z,102295.34
2022-12-03T02:04:42.156Z,102310.50
2022-12-03T02:07:23.221Z,102309.66
2022-12-03T02:09:52.706Z,102305.16
2022-12-03T02:12:25.257Z,102300.75
2022-12-03T02:14:54.079Z,102307.91
2022-12-03T02:17:22.557Z,102301.69
2022-12-03T02:19:50.922Z,102295.47
2022-12-03T02:22:28.607Z,102294.50
2022-12-03T02:25:06.871Z,102296.31
2022-12-03T02:27:38.061Z,102299.00
2022-12-03T02:30:08.692Z,102304.38
2022-12-03T02:32:36.937Z,102292.69
2022-12-03T02:35:05.556Z,102300.75
2022-12-03T02:37:36.789Z,102301.69
2022-12-03T02:40:11.856Z,102295.47
2022-12-03T02:42:39.396Z,102289.22
2022-12-03T02:45:12.384Z,102289.22
2022-12-03T02:47:43.876Z,102291.09
2022-12-03T02:50:14.798Z,102292.81
2022-12-03T02:52:45.023Z,102287.59
2022-12-03T02:55:16.563Z,102288.50
2022-12-03T02:57:46.364Z,102292.94
2022-12-03T03:00:16.337Z,102288.56
2022-12-03T03:02:46.512Z,102292.13
2022-12-03T03:05:16.762Z,102288.56
2022-12-03T03:07:45.057Z,102293.06
2022-12-03T03:10:17.868Z,102281.53
2022-12-03T03:12:45.870Z,102285.13
2022-12-03T03:15:14.661Z,102273.56
2022-12-03T03:17:43.494Z,102272.69
2022-12-03T03:20:12.888Z,102287.03
2022-12-03T03:22:43.273Z,102291.47
2022-12-03T03:25:13.994Z,102275.41
2022-12-03T03:27:43.772Z,102280.78
2022-12-03T03:30:12.915Z,102276.34
2022-12-03T03:32:41.786Z,102275.50
2022-12-03T03:35:11.879Z,102280.91
2022-12-03T03:37:40.262Z,102277.34
2022-12-03T03:40:09.752Z,102279.09
2022-12-03T03:42:39.358Z,102270.19
2022-12-03T03:45:10.897Z,102273.75
2022-12-03T03:47:38.925Z,102276.44
2022-12-03T03:50:09.392Z,102267.53
2022-12-03T03:52:39.171Z,102261.25
2022-12-03T03:55:09.183Z,102255.91
2022-12-03T03:57:37.480Z,102263.03
2022-12-03T04:00:12.187Z,102263.03
2022-12-03T04:02:41.353Z,102255.03
2022-12-03T04:05:16.612Z,102261.25
2022-12-03T04:07:44.645Z,102265.75
2022-12-03T04:10:31.096Z,102264.88
2022-12-03T04:12:59.119Z,102263.16
2022-12-03T04:15:28.509Z,102263.22
2022-12-03T04:18:14.554Z,102258.75
2022-12-03T04:20:43.344Z,102258.78
2022-12-03T04:23:10.658Z,102257.91
2022-12-03T04:25:56.380Z,102263.28
2022-12-03T04:28:42.360Z,102262.41
2022-12-03T04:31:29.270Z,102266.97
2022-12-03T04:34:14.767Z,102266.06
2022-12-03T04:36:42.762Z,102259.84
2022-12-03T04:39:13.304Z,102255.44
2022-12-03T04:41:41.417Z,102245.69
2022-12-03T04:44:26.857Z,102250.16
2022-12-03T04:46:56.386Z,102251.06
2022-12-03T04:49:24.466Z,102254.69
2022-12-03T04:51:52.457Z,102254.69
2022-12-03T04:54:20.509Z,102248.47
2022-12-03T04:56:48.443Z,102255.63
2022-12-03T04:59:16.814Z,102247.59
2022-12-03T05:01:45.414Z,102248.53
2022-12-03T05:04:15.569Z,102248.47
2022-12-03T05:06:44.517Z,102249.63
2022-12-03T05:09:12.729Z,102249.59
2022-12-03T05:11:41.061Z,102256.69
2022-12-03T05:14:09.071Z,102245.03
2022-12-03T05:16:37.553Z,102252.13
2022-12-03T05:19:07.912Z,102245.84
2022-12-03T05:21:37.429Z,102244.03
2022-12-03T05:24:06.309Z,102242.28
2022-12-03T05:26:34.300Z,102247.59
2022-12-03T05:29:02.312Z,102237.81
2022-12-03T05:31:30.335Z,102232.38
2022-12-03T05:33:58.552Z,102236.00
2022-12-03T05:36:26.546Z,102239.59
2022-12-03T05:38:55.835Z,102235.13
2022-12-03T05:41:46.474Z,102227.09
2022-12-03T05:44:20.158Z,102236.06
2022-12-03T05:46:48.613Z,102226.28
2022-12-03T05:49:16.540Z,102230.69
2022-12-03T05:51:44.446Z,102229.81
2022-12-03T05:54:13.728Z,102220.94
2022-12-03T05:56:41.626Z,102224.53
2022-12-03T05:59:09.669Z,102222.81
2022-12-03T06:01:39.593Z,102225.50
2022-12-03T06:04:07.629Z,102230.84
2022-12-03T06:06:35.580Z,102229.06
2022-12-03T06:09:03.692Z,102221.03
2022-12-03T06:11:37.113Z,102231.22
2022-12-03T06:14:05.108Z,102222.03
2022-12-03T06:16:33.253Z,102222.91
2022-12-03T06:19:01.213Z,102218.38
2022-12-03T06:21:29.220Z,102213.81
2022-12-03T06:23:57.173Z,102210.22
2022-12-03T06:26:25.108Z,102213.72
2022-12-03T06:28:54.434Z,102208.34
2022-12-03T06:31:23.156Z,102204.72
2022-12-03T06:33:51.133Z,102204.72
2022-12-03T06:36:23.044Z,102204.72
2022-12-03T06:38:51.515Z,102205.59
2022-12-03T06:41:19.423Z,102205.59
2022-12-03T06:43:47.446Z,102200.31
2022-12-03T06:46:16.778Z,102202.91
2022-12-03T06:48:44.751Z,102199.38
2022-12-03T06:51:12.716Z,102205.59
2022-12-03T06:53:40.604Z,102198.50
2022-12-03T06:56:08.936Z,102202.91
2022-12-03T06:58:37.114Z,102196.69
2022-12-03T07:01:05.049Z,102209.22
2022-12-03T07:03:34.398Z,102197.66
2022-12-03T07:06:02.312Z,102197.66
2022-12-03T07:08:30.586Z,102200.31
2022-12-03T07:10:58.776Z,102200.41
2022-12-03T07:13:26.761Z,102209.28
2022-12-03T07:15:54.747Z,102205.75
2022-12-03T07:18:22.718Z,102211.09
2022-12-03T07:20:52.002Z,102213.81
2022-12-03T07:23:19.884Z,102209.41
2022-12-03T07:25:47.827Z,102217.44
2022-12-03T07:28:15.736Z,102214.88
2022-12-03T07:30:43.643Z,102217.56
2022-12-03T07:33:11.608Z,102216.69
2022-12-03T07:35:39.569Z,102215.88
2022-12-03T07:38:08.906Z,102221.19
2022-12-03T07:40:39.157Z,102217.63
2022-12-03T07:43:07.396Z,102220.34
2022-12-03T07:45:35.341Z,102229.41
2022-12-03T07:48:03.337Z,102226.75
2022-12-03T07:50:31.323Z,102229.50
2022-12-03T07:53:01.604Z,102223.28
2022-12-03T07:55:30.909Z,102226.84
2022-12-03T07:57:58.859Z,102234.91
2022-12-03T08:00:27.008Z,102225.09
2022-12-03T08:02:54.960Z,102231.38
2022-12-03T08:05:22.958Z,102222.56
2022-12-03T08:07:51.003Z,102221.72
2022-12-03T08:10:19.686Z,102219.91
2022-12-03T08:12:48.942Z,102221.72
2022-12-03T08:15:19.018Z,102223.47
2022-12-03T08:17:52.084Z,102228.84
2022-12-03T08:20:21.795Z,102226.16
2022-12-03T08:22:52.651Z,102228.56
2022-12-03T08:25:22.857Z,102228.34
2022-12-03T08:27:54.932Z,102221.47
2022-12-03T08:30:22.874Z,102235.50
2022-12-03T08:32:52.096Z,102222.81
2022-12-03T08:35:25.060Z,102224.44
2022-12-03T08:37:59.884Z,102219.88
2022-12-03T08:40:35.284Z,102229.53
2022-12-03T08:43:13.842Z,102217.97
2022-12-03T08:45:43.321Z,102227.69
2022-12-03T08:48:29.491Z,102219.63
2022-12-03T08:50:59.137Z,102223.13
2022-12-03T08:53:32.658Z,102216.81
2022-12-03T08:56:04.403Z,102225.63
2022-12-03T08:58:39.309Z,102214.84
2022-12-03T09:01:31.578Z,102211.31
2022-12-03T09:04:25.251Z,102210.31
2022-12-03T09:06:54.437Z,102216.44
2022-12-03T09:09:22.965Z,102211.16
2022-12-03T09:11:51.410Z,102204.84
2022-12-03T09:14:22.749Z,102201.25
2022-12-03T09:16:51.980Z,102209.34
2022-12-03T09:19:20.175Z,102201.25
2022-12-03T09:21:48.172Z,102202.09
2022-12-03T09:24:16.083Z,102204.47
2022-12-03T09:26:44.062Z,102202.19
2022-12-03T09:29:12.921Z,102205.91
2022-12-03T09:31:42.711Z,102208.78
2022-12-03T09:34:11.217Z,102211.06
2022-12-03T09:36:39.195Z,102208.47
2022-12-03T09:39:07.646Z,102216.19
2022-12-03T09:41:37.863Z,102218.75
2022-12-03T09:44:08.597Z,102218.50
2022-12-03T09:46:40.698Z,102222.69
2022-12-03T09:49:16.030Z,102216.13
2022-12-03T09:51:45.257Z,102208.75
2022-12-03T09:54:22.783Z,102208.31
2022-12-03T09:56:50.851Z,102208.00
2022-12-03T09:59:19.524Z,102204.13
2022-12-03T10:01:47.702Z,102199.50
2022-12-03T10:04:17.725Z,102193.22
2022-12-03T10:06:46.383Z,102202.84
2022-12-03T10:09:20.921Z,102203.13
2022-12-03T10:11:48.976Z,102196.81
2022-12-03T10:14:21.162Z,102199.44
2022-12-03T10:16:49.737Z,102200.19
2022-12-03T10:19:24.265Z,102199.19
2022-12-03T10:21:52.268Z,102198.22
2022-12-03T10:24:23.330Z,102202.66
2022-12-03T10:26:53.174Z,102194.50
2022-12-03T10:29:26.982Z,102185.66
2022-12-03T10:32:01.592Z,102182.91
2022-12-03T10:34:33.239Z,102181.13
2022-12-03T10:37:16.413Z,102186.47
2022-12-03T10:39:56.204Z,102170.38
2022-12-03T10:42:26.044Z,102175.59
2022-12-03T10:45:16.962Z,102178.22
2022-12-03T10:48:03.020Z,102165.66
2022-12-03T10:50:32.758Z,102155.81
2022-12-03T10:53:00.670Z,102159.34
2022-12-03T10:55:30.132Z,102155.66
2022-12-03T10:57:58.616Z,102148.47
2022-12-03T11:00:26.618Z,102150.97
2022-12-03T11:02:56.947Z,102151.47
2022-12-03T11:05:30.115Z,102147.56
2022-12-03T11:07:59.499Z,102147.34
2022-12-03T11:10:27.462Z,102133.66
2022-12-03T11:13:45.238Z,102136.09
2022-12-03T11:16:14.622Z,102134.13
2022-12-03T11:19:03.148Z,102133.09
2022-12-03T11:21:31.459Z,102120.63
2022-12-03T11:24:21.842Z,102116.03
2022-12-03T11:27:26.210Z,102113.31
2022-12-03T11:29:59.724Z,102108.81
2022-12-03T11:33:00.452Z,102102.53
2022-12-03T11:35:35.833Z,102097.06
2022-12-03T11:38:37.240Z,102115.50
2022-12-03T11:41:12.695Z,102101.91
2022-12-03T11:44:00.712Z,102104.44
2022-12-03T11:46:31.768Z,102096.31
2022-12-03T11:49:01.093Z,102099.78
2022-12-03T11:51:30.720Z,102093.56
2022-12-03T11:54:00.854Z,102088.16
2022-12-03T11:56:31.915Z,102094.31
2022-12-03T11:59:02.098Z,102085.47
2022-12-03T12:01:38.515Z,102083.72
2022-12-03T12:04:08.369Z,102084.63
2022-12-03T12:06:42.646Z,102074.78
2022-12-03T12:09:11.425Z,102072.97
2022-12-03T12:11:41.750Z,102071.16
2022-12-03T12:14:10.794Z,102080.06
2022-12-03T12:16:50.524Z,102076.44
2022-12-03T12:19:39.946Z,102078.19
2022-12-03T12:22:29.918Z,102071.91
2022-12-03T12:24:59.430Z,102062.06
2022-12-03T12:27:34.985Z,102067.41
2022-12-03T12:30:07.807Z,102062.94
2022-12-03T12:32:43.025Z,102062.06
2022-12-03T12:35:17.118Z,102069.16
2022-12-03T12:37:56.611Z,102055.78
2022-12-03T12:40:28.775Z,102052.19
2022-12-03T12:42:59.973Z,102047.75
2022-12-03T12:45:30.196Z,102046.84
2022-12-03T12:48:08.231Z,102043.25
2022-12-03T12:50:37.819Z,102036.13
2022-12-03T12:53:13.875Z,102030.78
2022-12-03T12:55:42.039Z,102028.09
2022-12-03T12:58:17.215Z,102029.81
2022-12-03T13:00:49.838Z,102028.97
2022-12-03T13:03:19.071Z,102025.41
2022-12-03T13:05:49.261Z,102020.94
2022-12-03T13:08:23.335Z,102019.13
2022-12-03T13:10:52.163Z,102021.81
2022-12-03T13:13:31.934Z,102022.66
2022-12-03T13:16:07.661Z,102028.88
2022-12-03T13:18:42.030Z,102022.59
2022-12-03T13:21:21.656Z,102023.53
2022-12-03T13:23:51.171Z,102020.84
2022-12-03T13:26:34.648Z,102027.94
2022-12-03T13:29:14.572Z,102022.59
2022-12-03T13:31:46.553Z,102025.25
2022-12-03T13:34:20.185Z,102012.75
2022-12-03T13:36:55.319Z,102010.16
2022-12-03T13:39:29.699Z,102009.28
2022-12-03T13:42:15.493Z,102016.31
2022-12-03T13:44:48.999Z,102012.69
2022-12-03T13:47:19.870Z,102014.50
2022-12-03T13:49:53.678Z,102013.56
2022-12-03T13:52:25.050Z,102009.16
2022-12-03T13:54:54.975Z,102002.00
2022-12-03T13:57:23.455Z,101999.31
2022-12-03T13:59:55.476Z,102000.19
2022-12-03T14:02:23.844Z,102001.06
2022-12-03T14:04:56.781Z,101996.56
2022-12-03T14:07:27.928Z,101996.56
2022-12-03T14:09:56.427Z,101992.06
2022-12-03T14:12:27.270Z,101993.84
2022-12-03T14:14:57.213Z,101993.84
2022-12-03T14:17:25.267Z,101994.72
2022-12-03T14:19:53.403Z,102000.06
2022-12-03T14:22:23.451Z,101985.72
2022-12-03T14:24:51.555Z,101983.91
2022-12-03T14:27:19.813Z,101988.31
2022-12-03T14:29:47.940Z,101992.81
2022-12-03T14:32:17.728Z,102000.84
2022-12-03T14:34:45.764Z,101993.69
2022-12-03T14:37:13.888Z,101992.78
2022-12-03T14:39:44.003Z,101996.31
2022-12-03T14:42:14.564Z,101994.50
2022-12-03T14:44:42.686Z,101985.53
2022-12-03T14:47:11.020Z,101987.34
2022-12-03T14:49:40.479Z,101987.34
2022-12-03T14:52:12.223Z,101987.28
2022-12-03T14:54:43.355Z,101989.97
2022-12-03T14:57:15.351Z,101981.97
2022-12-03T14:59:45.045Z,101989.97
2022-12-03T15:02:13.774Z,101992.56
2022-12-03T15:04:43.166Z,101985.53
2022-12-03T15:07:11.099Z,101984.63
2022-12-03T15:09:38.983Z,101986.34
2022-12-03T15:12:07.760Z,101993.44
2022-12-03T15:14:35.699Z,101990.75
2022-12-03T15:17:05.809Z,101989.81
2022-12-03T15:19:33.902Z,101983.59
2022-12-03T15:22:05.456Z,101981.78
2022-12-03T15:24:33.423Z,101989.75
2022-12-03T15:27:03.374Z,101979.97
2022-12-03T15:29:32.827Z,101985.28
2022-12-03T15:32:01.144Z,101988.81
2022-12-03T15:34:32.235Z,101986.13
2022-12-03T15:37:00.180Z,101988.81
2022-12-03T15:39:29.604Z,101987.94
2022-12-03T15:41:57.476Z,101987.94
2022-12-03T15:44:25.384Z,101987.00
2022-12-03T15:46:53.367Z,101987.94
2022-12-03T15:49:21.282Z,101986.22
2022-12-03T15:51:49.224Z,101987.94
2022-12-03T15:54:17.162Z,101992.34
2022-12-03T15:56:46.661Z,101990.53
2022-12-03T15:59:14.635Z,101991.41
2022-12-03T16:01:42.602Z,101993.19
2022-12-03T16:04:10.535Z,101996.63
2022-12-03T16:06:38.507Z,101994.81
2022-12-03T16:09:06.700Z,101980.56
2022-12-03T16:11:34.722Z,101986.78
2022-12-03T16:14:04.109Z,101982.31
2022-12-03T16:16:32.091Z,101984.94
2022-12-03T16:19:00.143Z,101980.53
2022-12-03T16:21:28.053Z,101985.78
2022-12-03T16:23:56.516Z,101984.94
2022-12-03T16:26:24.451Z,101984.00
2022-12-03T16:28:52.456Z,101984.94
2022-12-03T16:31:21.863Z,101987.63
2022-12-03T16:33:50.240Z,101984.00
2022-12-03T16:36:18.420Z,101977.84
2022-12-03T16:38:46.271Z,101978.72
2022-12-03T16:41:15.397Z,101984.94
2022-12-03T16:43:46.095Z,101987.63
2022-12-03T16:46:26.208Z,101976.91
2022-12-03T16:48:57.968Z,101965.31
2022-12-03T16:51:27.410Z,101973.28
2022-12-03T16:53:55.362Z,101970.69
2022-12-03T16:56:23.376Z,101967.06
2022-12-03T16:58:51.298Z,101970.59
2022-12-03T17:01:19.263Z,101968.78
2022-12-03T17:03:47.225Z,101968.78
2022-12-03T17:06:16.591Z,101967.91
2022-12-03T17:08:49.103Z,101976.81
2022-12-03T17:11:17.581Z,101976.81
2022-12-03T17:13:45.513Z,101972.31
2022-12-03T17:16:13.613Z,101973.19
2022-12-03T17:18:41.564Z,101969.59
2022-12-03T17:21:09.479Z,101980.31
2022-12-03T17:23:40.837Z,101972.19
2022-12-03T17:26:08.811Z,101974.78
2022-12-03T17:28:36.736Z,101979.25
2022-12-03T17:31:05.197Z,101973.88
2022-12-03T17:33:33.155Z,101970.25
2022-12-03T17:36:01.224Z,101967.50
2022-12-03T17:38:31.611Z,101963.97
2022-12-03T17:41:05.260Z,101971.94
2022-12-03T17:43:33.274Z,101966.63
2022-12-03T17:46:01.309Z,101959.47
2022-12-03T17:48:31.348Z,101964.81
2022-12-03T17:50:59.401Z,101962.22
2022-12-03T17:53:27.429Z,101959.47
2022-12-03T17:55:55.636Z,101951.50
2022-12-03T17:58:26.620Z,101949.69
2022-12-03T18:00:58.693Z,101947.09
2022-12-03T18:03:30.345Z,101951.44
2022-12-03T18:05:58.475Z,101951.50
2022-12-03T18:08:26.358Z,101955.00
2022-12-03T18:10:54.326Z,101947.03
2022-12-03T18:13:22.216Z,101947.88
2022-12-03T18:15:51.575Z,101951.44
2022-12-03T18:18:19.471Z,101947.84
2022-12-03T18:20:47.525Z,101948.75
2022-12-03T18:23:15.763Z,101938.03
2022-12-03T18:25:43.720Z,101944.28
2022-12-03T18:28:11.804Z,101938.03
2022-12-03T18:30:39.872Z,101947.84
2022-12-03T18:33:09.803Z,101949.56
2022-12-03T18:35:37.926Z,101939.63
2022-12-03T18:38:06.390Z,101939.63
2022-12-03T18:40:34.406Z,101946.75
2022-12-03T18:43:02.471Z,101939.50
2022-12-03T18:45:30.366Z,101936.81
2022-12-03T18:47:58.342Z,101936.78
2022-12-03T18:50:27.654Z,101935.81
2022-12-03T18:52:55.605Z,101928.66
2022-12-03T18:55:23.551Z,101932.19
2022-12-03T18:57:51.712Z,101930.38
2022-12-03T19:00:20.559Z,101929.53
2022-12-03T19:03:04.837Z,101929.53
2022-12-03T19:05:36.001Z,101927.78
2022-12-03T19:08:12.417Z,101927.78
2022-12-03T19:10:40.656Z,101924.25
2022-12-03T19:13:08.776Z,101924.25
2022-12-03T19:15:38.102Z,101915.25
2022-12-03T19:18:07.507Z,101923.31
2022-12-03T19:20:36.823Z,101928.66
2022-12-03T19:23:04.797Z,101932.19
2022-12-03T19:25:32.708Z,101935.81
2022-12-03T19:28:00.643Z,101934.88
2022-12-03T19:30:28.630Z,101936.59
2022-12-03T19:32:56.651Z,101934.81
2022-12-03T19:35:25.080Z,101926.41
2022-12-03T19:37:55.741Z,101925.47
2022-12-03T19:40:23.748Z,101914.88
2022-12-03T19:42:51.631Z,101921.09
2022-12-03T19:45:19.606Z,101918.38
2022-12-03T19:47:47.579Z,101920.97
2022-12-03T19:50:22.722Z,101928.00
2022-12-03T19:52:51.426Z,101919.03
2022-12-03T19:55:20.811Z,101917.06
2022-12-03T19:57:48.839Z,101916.13
2022-12-03T20:00:17.713Z,101906.22
2022-12-03T20:02:45.763Z,101912.38
2022-12-03T20:05:13.682Z,101906.16
2022-12-03T20:07:41.720Z,101906.88
2022-12-03T20:10:10.484Z,101905.94
2022-12-03T20:12:39.998Z,101903.19
2022-12-03T20:15:08.572Z,101908.38
2022-12-03T20:17:36.783Z,101902.16
2022-12-03T20:20:06.248Z,101902.97
2022-12-03T20:22:36.465Z,101898.47
2022-12-03T20:25:05.091Z,101901.06
2022-12-03T20:27:33.479Z,101905.50
2022-12-03T20:30:02.835Z,101908.09
2022-12-03T20:32:30.803Z,101913.47
2022-12-03T20:34:59.641Z,101907.16
2022-12-03T20:37:31.763Z,101909.78
2022-12-03T20:39:59.692Z,101899.97
2022-12-03T20:42:27.574Z,101899.88
2022-12-03T20:44:55.531Z,101888.22
2022-12-03T20:47:24.788Z,101888.16
2022-12-03T20:49:52.934Z,101886.44
2022-12-03T20:52:20.932Z,101885.41
2022-12-03T20:54:48.846Z,101881.75
2022-12-03T20:57:18.999Z,101881.75
2022-12-03T20:59:46.905Z,101879.09
2022-12-03T21:02:15.260Z,101873.72
2022-12-03T21:04:44.814Z,101871.84
2022-12-03T21:07:12.848Z,101877.22
2022-12-03T21:09:40.773Z,101873.53
2022-12-03T21:12:08.874Z,101869.25
2022-12-03T21:14:36.747Z,101875.72
2022-12-03T21:17:09.235Z,101871.03
2022-12-03T21:19:38.273Z,101871.94
2022-12-03T21:22:07.984Z,101858.47
2022-12-03T21:24:35.972Z,101875.41
2022-12-03T21:27:04.117Z,101873.44
2022-12-03T21:29:32.054Z,101874.25
2022-12-03T21:32:00.026Z,101878.66
2022-12-03T21:34:34.193Z,101871.47
2022-12-03T21:37:04.194Z,101872.34
2022-12-03T21:39:33.498Z,101870.53
2022-12-03T21:42:22.052Z,101868.72
2022-12-03T21:44:49.354Z,101868.53
2022-12-03T21:47:17.393Z,101869.38
2022-12-03T21:49:45.353Z,101872.94
2022-12-03T21:52:14.388Z,101870.16
2022-12-03T21:54:43.697Z,101871.97
2022-12-03T21:57:15.531Z,101880.88
2022-12-03T21:59:43.439Z,101876.38
2022-12-03T22:02:11.988Z,101866.53
2022-12-03T22:04:40.816Z,101863.94
2022-12-03T22:07:08.764Z,101873.69
2022-12-03T22:09:36.905Z,101871.88
2022-12-03T22:12:06.902Z,101871.03
2022-12-03T22:14:34.778Z,101871.03
2022-12-03T22:17:02.779Z,101862.13
2022-12-03T22:19:30.695Z,101859.53
2022-12-03T22:21:58.683Z,101854.16
2022-12-03T22:24:26.583Z,101860.38
2022-12-03T22:26:55.009Z,101858.66
2022-12-03T22:29:24.347Z,101847.06
2022-12-03T22:31:52.309Z,101849.75
2022-12-03T22:34:20.291Z,101851.53
2022-12-03T22:36:48.222Z,101856.13
2022-12-03T22:39:16.229Z,101849.91
2022-12-03T22:41:44.140Z,101846.28
2022-12-03T22:44:12.107Z,101845.31
2022-12-03T22:46:41.512Z,101849.75
2022-12-03T22:49:09.469Z,101842.63
2022-12-03T22:51:37.443Z,101840.91
2022-12-03T22:54:05.647Z,101846.28
2022-12-03T22:56:33.997Z,101840.03
2022-12-03T22:59:02.159Z,101840.81
2022-12-03T23:01:32.650Z,101842.63
2022-12-03T23:04:03.057Z,101845.41
2022-12-03T23:06:32.296Z,101842.72
2022-12-03T23:09:00.498Z,101842.78
2022-12-03T23:11:30.703Z,101846.34
2022-12-03T23:13:59.727Z,101842.78
2022-12-03T23:16:29.578Z,101839.31
2022-12-03T23:18:59.381Z,101838.47
2022-12-03T23:21:32.633Z,101837.59
2022-12-03T23:24:01.863Z,101839.41
2022-12-03T23:26:30.562Z,101843.81
2022-12-03T23:28:58.475Z,101841.13
2022-12-03T23:31:28.546Z,101838.47
2022-12-03T23:33:58.494Z,101843.81
2022-12-03T23:36:31.806Z,101837.59
2022-12-03T23:38:59.839Z,101832.25
2022-12-03T23:41:27.917Z,101834.91
2022-12-03T23:43:57.345Z,101842.09
2022-12-03T23:46:27.920Z,101828.75
2022-12-03T23:48:56.800Z,101822.53
2022-12-03T23:51:25.909Z,101827.88
2022-12-03T23:53:55.756Z,101827.09
2022-12-03T23:56:26.559Z,101829.84
2022-12-03T23:58:54.690Z,101831.56
